sensor_id;sensor_type;location;lat;lon;timestamp;P1;durP1;ratioP1;P2;durP2;ratioP2
11711;SDS011;5912;51.034;6.984;2022-07-18T00:00:21;1.77;;;0.85;;
11711;SDS011;5912;51.034;6.984;2022-07-18T00:02:46;1.25;;;0.80;;
11711;SDS011;5912;51.034;6.984;2022-07-18T00:05:11;2.88;;;0.90;;
11711;SDS011;5912;51.034;6.984;2022-07-18T00:07:37;2.25;;;0.95;;
11711;SDS011;5912;51.034;6.984;2022-07-18T00:10:02;2.78;;;0.93;;
11711;SDS011;5912;51.034;6.984;2022-07-18T00:12:28;0.90;;;0.70;;
11711;SDS011;5912;51.034;6.984;2022-07-18T00:14:54;2.35;;;0.70;;
11711;SDS011;5912;51.034;6.984;2022-07-18T00:17:19;1.40;;;0.90;;
11711;SDS011;5912;51.034;6.984;2022-07-18T00:19:44;1.02;;;0.90;;
11711;SDS011;5912;51.034;6.984;2022-07-18T00:22:10;1.38;;;0.82;;
11711;SDS011;5912;51.034;6.984;2022-07-18T00:24:35;1.83;;;0.90;;
11711;SDS011;5912;51.034;6.984;2022-07-18T00:27:02;0.80;;;0.80;;
11711;SDS011;5912;51.034;6.984;2022-07-18T00:29:29;1.40;;;1.00;;
11711;SDS011;5912;51.034;6.984;2022-07-18T00:31:54;5.15;;;1.15;;
11711;SDS011;5912;51.034;6.984;2022-07-18T00:34:20;1.27;;;0.90;;
11711;SDS011;5912;51.034;6.984;2022-07-18T00:36:45;1.25;;;0.90;;
11711;SDS011;5912;51.034;6.984;2022-07-18T00:39:10;1.33;;;0.77;;
11711;SDS011;5912;51.034;6.984;2022-07-18T00:41:36;1.23;;;0.90;;
11711;SDS011;5912;51.034;6.984;2022-07-18T00:44:01;1.30;;;0.90;;
11711;SDS011;5912;51.034;6.984;2022-07-18T00:46:27;1.75;;;0.70;;
11711;SDS011;5912;51.034;6.984;2022-07-18T00:48:53;2.67;;;1.00;;
11711;SDS011;5912;51.034;6.984;2022-07-18T00:51:19;1.02;;;0.80;;
11711;SDS011;5912;51.034;6.984;2022-07-18T00:53:45;2.58;;;1.20;;
11711;SDS011;5912;51.034;6.984;2022-07-18T00:56:12;1.13;;;1.00;;
11711;SDS011;5912;51.034;6.984;2022-07-18T00:58:38;1.23;;;0.90;;
11711;SDS011;5912;51.034;6.984;2022-07-18T01:01:03;0.90;;;0.77;;
11711;SDS011;5912;51.034;6.984;2022-07-18T01:03:47;1.50;;;1.10;;
11711;SDS011;5912;51.034;6.984;2022-07-18T01:06:13;3.30;;;0.80;;
11711;SDS011;5912;51.034;6.984;2022-07-18T01:08:38;2.55;;;1.35;;
11711;SDS011;5912;51.034;6.984;2022-07-18T01:11:07;3.28;;;1.20;;
11711;SDS011;5912;51.034;6.984;2022-07-18T01:13:33;1.80;;;0.90;;
11711;SDS011;5912;51.034;6.984;2022-07-18T01:15:58;1.83;;;1.17;;
11711;SDS011;5912;51.034;6.984;2022-07-18T01:18:23;1.55;;;0.98;;
11711;SDS011;5912;51.034;6.984;2022-07-18T01:20:49;1.65;;;1.10;;
11711;SDS011;5912;51.034;6.984;2022-07-18T01:23:14;2.58;;;1.02;;
11711;SDS011;5912;51.034;6.984;2022-07-18T01:25:39;1.05;;;0.95;;
11711;SDS011;5912;51.034;6.984;2022-07-18T01:28:05;1.38;;;1.08;;
11711;SDS011;5912;51.034;6.984;2022-07-18T01:30:30;1.27;;;0.90;;
11711;SDS011;5912;51.034;6.984;2022-07-18T01:33:00;4.53;;;1.10;;
11711;SDS011;5912;51.034;6.984;2022-07-18T01:35:27;1.85;;;0.88;;
11711;SDS011;5912;51.034;6.984;2022-07-18T01:37:54;3.13;;;1.00;;
11711;SDS011;5912;51.034;6.984;2022-07-18T01:40:21;1.35;;;0.98;;
11711;SDS011;5912;51.034;6.984;2022-07-18T01:42:47;2.85;;;1.35;;
11711;SDS011;5912;51.034;6.984;2022-07-18T01:45:13;1.15;;;0.98;;
11711;SDS011;5912;51.034;6.984;2022-07-18T01:47:39;0.90;;;0.80;;
11711;SDS011;5912;51.034;6.984;2022-07-18T01:50:05;1.77;;;1.20;;
11711;SDS011;5912;51.034;6.984;2022-07-18T01:52:31;2.38;;;1.30;;
11711;SDS011;5912;51.034;6.984;2022-07-18T01:54:56;1.85;;;1.23;;
11711;SDS011;5912;51.034;6.984;2022-07-18T01:57:22;1.88;;;1.23;;
11711;SDS011;5912;51.034;6.984;2022-07-18T01:59:48;2.80;;;1.25;;
11711;SDS011;5912;51.034;6.984;2022-07-18T02:02:14;2.75;;;1.17;;
11711;SDS011;5912;51.034;6.984;2022-07-18T02:04:39;1.75;;;1.20;;
11711;SDS011;5912;51.034;6.984;2022-07-18T02:07:23;1.58;;;1.00;;
11711;SDS011;5912;51.034;6.984;2022-07-18T02:09:48;1.27;;;1.05;;
11711;SDS011;5912;51.034;6.984;2022-07-18T02:12:14;1.70;;;1.15;;
11711;SDS011;5912;51.034;6.984;2022-07-18T02:14:39;1.58;;;1.27;;
11711;SDS011;5912;51.034;6.984;2022-07-18T02:17:04;2.00;;;1.40;;
11711;SDS011;5912;51.034;6.984;2022-07-18T02:19:30;2.85;;;1.10;;
11711;SDS011;5912;51.034;6.984;2022-07-18T02:21:56;2.28;;;1.10;;
11711;SDS011;5912;51.034;6.984;2022-07-18T02:24:21;2.80;;;1.25;;
11711;SDS011;5912;51.034;6.984;2022-07-18T02:26:46;2.53;;;1.25;;
11711;SDS011;5912;51.034;6.984;2022-07-18T02:29:12;1.52;;;1.10;;
11711;SDS011;5912;51.034;6.984;2022-07-18T02:31:37;1.30;;;1.00;;
11711;SDS011;5912;51.034;6.984;2022-07-18T02:34:02;3.88;;;1.23;;
11711;SDS011;5912;51.034;6.984;2022-07-18T02:36:35;1.20;;;1.10;;
11711;SDS011;5912;51.034;6.984;2022-07-18T02:39:03;2.72;;;1.50;;
11711;SDS011;5912;51.034;6.984;2022-07-18T02:41:28;3.05;;;1.20;;
11711;SDS011;5912;51.034;6.984;2022-07-18T02:43:54;2.40;;;1.23;;
11711;SDS011;5912;51.034;6.984;2022-07-18T02:46:19;2.47;;;1.25;;
11711;SDS011;5912;51.034;6.984;2022-07-18T02:48:44;2.60;;;1.50;;
11711;SDS011;5912;51.034;6.984;2022-07-18T02:51:10;1.55;;;1.25;;
11711;SDS011;5912;51.034;6.984;2022-07-18T02:53:35;2.22;;;1.30;;
11711;SDS011;5912;51.034;6.984;2022-07-18T02:56:00;2.55;;;1.27;;
11711;SDS011;5912;51.034;6.984;2022-07-18T02:58:26;2.55;;;1.60;;
11711;SDS011;5912;51.034;6.984;2022-07-18T03:00:51;2.10;;;1.27;;
11711;SDS011;5912;51.034;6.984;2022-07-18T03:03:16;1.52;;;0.93;;
11711;SDS011;5912;51.034;6.984;2022-07-18T03:05:41;2.97;;;1.10;;
11711;SDS011;5912;51.034;6.984;2022-07-18T03:08:07;1.85;;;1.20;;
11711;SDS011;5912;51.034;6.984;2022-07-18T03:10:32;1.45;;;1.10;;
11711;SDS011;5912;51.034;6.984;2022-07-18T03:12:57;1.83;;;1.10;;
11711;SDS011;5912;51.034;6.984;2022-07-18T03:15:23;1.00;;;0.90;;
11711;SDS011;5912;51.034;6.984;2022-07-18T03:17:48;3.38;;;1.35;;
11711;SDS011;5912;51.034;6.984;2022-07-18T03:20:13;1.35;;;1.00;;
11711;SDS011;5912;51.034;6.984;2022-07-18T03:22:39;2.47;;;1.40;;
11711;SDS011;5912;51.034;6.984;2022-07-18T03:25:04;1.90;;;1.10;;
11711;SDS011;5912;51.034;6.984;2022-07-18T03:27:29;2.28;;;1.15;;
11711;SDS011;5912;51.034;6.984;2022-07-18T03:29:55;1.98;;;1.23;;
11711;SDS011;5912;51.034;6.984;2022-07-18T03:32:20;2.35;;;1.00;;
11711;SDS011;5912;51.034;6.984;2022-07-18T03:34:45;1.13;;;1.00;;
11711;SDS011;5912;51.034;6.984;2022-07-18T03:37:11;1.17;;;1.00;;
11711;SDS011;5912;51.034;6.984;2022-07-18T03:39:36;1.55;;;1.13;;
11711;SDS011;5912;51.034;6.984;2022-07-18T03:42:02;1.63;;;1.00;;
11711;SDS011;5912;51.034;6.984;2022-07-18T03:44:27;3.00;;;1.20;;
11711;SDS011;5912;51.034;6.984;2022-07-18T03:46:52;1.65;;;1.13;;
11711;SDS011;5912;51.034;6.984;2022-07-18T03:49:19;3.53;;;1.45;;
11711;SDS011;5912;51.034;6.984;2022-07-18T03:51:44;2.72;;;1.30;;
11711;SDS011;5912;51.034;6.984;2022-07-18T03:54:09;2.70;;;1.10;;
11711;SDS011;5912;51.034;6.984;2022-07-18T03:56:35;2.47;;;1.40;;
11711;SDS011;5912;51.034;6.984;2022-07-18T03:59:01;1.58;;;1.48;;
11711;SDS011;5912;51.034;6.984;2022-07-18T04:01:27;3.90;;;1.33;;
11711;SDS011;5912;51.034;6.984;2022-07-18T04:03:53;1.83;;;1.35;;
11711;SDS011;5912;51.034;6.984;2022-07-18T04:06:19;3.65;;;1.20;;
11711;SDS011;5912;51.034;6.984;2022-07-18T04:08:44;1.38;;;1.02;;
11711;SDS011;5912;51.034;6.984;2022-07-18T04:11:09;1.98;;;1.10;;
11711;SDS011;5912;51.034;6.984;2022-07-18T04:13:35;1.55;;;1.00;;
11711;SDS011;5912;51.034;6.984;2022-07-18T04:16:00;2.88;;;1.27;;
11711;SDS011;5912;51.034;6.984;2022-07-18T04:18:26;1.25;;;1.08;;
11711;SDS011;5912;51.034;6.984;2022-07-18T04:20:51;3.20;;;1.30;;
11711;SDS011;5912;51.034;6.984;2022-07-18T04:23:16;3.50;;;1.20;;
11711;SDS011;5912;51.034;6.984;2022-07-18T04:25:43;2.97;;;1.20;;
11711;SDS011;5912;51.034;6.984;2022-07-18T04:28:09;1.15;;;1.05;;
11711;SDS011;5912;51.034;6.984;2022-07-18T04:30:37;1.88;;;1.20;;
11711;SDS011;5912;51.034;6.984;2022-07-18T04:33:05;1.55;;;1.02;;
11711;SDS011;5912;51.034;6.984;2022-07-18T04:35:32;1.40;;;1.00;;
11711;SDS011;5912;51.034;6.984;2022-07-18T04:38:01;1.55;;;1.23;;
11711;SDS011;5912;51.034;6.984;2022-07-18T04:40:27;1.52;;;1.02;;
11711;SDS011;5912;51.034;6.984;2022-07-18T04:42:52;1.70;;;1.10;;
11711;SDS011;5912;51.034;6.984;2022-07-18T04:45:18;2.30;;;1.10;;
11711;SDS011;5912;51.034;6.984;2022-07-18T04:47:46;1.27;;;1.10;;
11711;SDS011;5912;51.034;6.984;2022-07-18T04:50:13;3.45;;;1.10;;
11711;SDS011;5912;51.034;6.984;2022-07-18T04:52:39;1.33;;;1.05;;
11711;SDS011;5912;51.034;6.984;2022-07-18T04:55:07;1.25;;;1.10;;
11711;SDS011;5912;51.034;6.984;2022-07-18T04:57:34;4.95;;;1.30;;
11711;SDS011;5912;51.034;6.984;2022-07-18T04:59:59;2.80;;;1.10;;
11711;SDS011;5912;51.034;6.984;2022-07-18T05:02:25;2.00;;;1.17;;
11711;SDS011;5912;51.034;6.984;2022-07-18T05:04:51;1.20;;;1.00;;
11711;SDS011;5912;51.034;6.984;2022-07-18T05:07:16;1.10;;;1.00;;
11711;SDS011;5912;51.034;6.984;2022-07-18T05:09:41;1.98;;;1.15;;
11711;SDS011;5912;51.034;6.984;2022-07-18T05:12:06;1.85;;;1.02;;
11711;SDS011;5912;51.034;6.984;2022-07-18T05:14:32;1.70;;;1.00;;
11711;SDS011;5912;51.034;6.984;2022-07-18T05:16:57;6.45;;;1.20;;
11711;SDS011;5912;51.034;6.984;2022-07-18T05:19:22;1.33;;;1.17;;
11711;SDS011;5912;51.034;6.984;2022-07-18T05:21:48;2.88;;;1.30;;
11711;SDS011;5912;51.034;6.984;2022-07-18T05:24:13;2.03;;;1.13;;
11711;SDS011;5912;51.034;6.984;2022-07-18T05:26:38;1.55;;;1.00;;
11711;SDS011;5912;51.034;6.984;2022-07-18T05:29:04;2.10;;;1.20;;
11711;SDS011;5912;51.034;6.984;2022-07-18T05:34:00;2.03;;;1.17;;
11711;SDS011;5912;51.034;6.984;2022-07-18T05:36:25;2.75;;;1.08;;
11711;SDS011;5912;51.034;6.984;2022-07-18T05:38:50;2.20;;;1.40;;
11711;SDS011;5912;51.034;6.984;2022-07-18T05:41:16;1.92;;;1.25;;
11711;SDS011;5912;51.034;6.984;2022-07-18T05:43:41;3.53;;;1.20;;
11711;SDS011;5912;51.034;6.984;2022-07-18T05:46:06;4.45;;;1.30;;
11711;SDS011;5912;51.034;6.984;2022-07-18T05:48:32;2.17;;;1.40;;
11711;SDS011;5912;51.034;6.984;2022-07-18T05:50:57;2.17;;;1.25;;
11711;SDS011;5912;51.034;6.984;2022-07-18T05:53:23;1.30;;;1.05;;
11711;SDS011;5912;51.034;6.984;2022-07-18T05:55:48;1.75;;;1.15;;
11711;SDS011;5912;51.034;6.984;2022-07-18T05:58:13;1.83;;;0.95;;
11711;SDS011;5912;51.034;6.984;2022-07-18T06:00:39;1.95;;;1.10;;
11711;SDS011;5912;51.034;6.984;2022-07-18T06:03:04;2.97;;;1.02;;
11711;SDS011;5912;51.034;6.984;2022-07-18T06:05:29;1.85;;;1.10;;
11711;SDS011;5912;51.034;6.984;2022-07-18T06:07:55;1.67;;;0.85;;
11711;SDS011;5912;51.034;6.984;2022-07-18T06:10:21;1.58;;;0.80;;
11711;SDS011;5912;51.034;6.984;2022-07-18T06:12:48;1.63;;;0.88;;
11711;SDS011;5912;51.034;6.984;2022-07-18T06:15:15;1.70;;;0.88;;
11711;SDS011;5912;51.034;6.984;2022-07-18T06:17:40;1.50;;;1.02;;
11711;SDS011;5912;51.034;6.984;2022-07-18T06:20:06;2.22;;;1.00;;
11711;SDS011;5912;51.034;6.984;2022-07-18T06:22:33;1.60;;;1.00;;
11711;SDS011;5912;51.034;6.984;2022-07-18T06:24:59;2.85;;;0.90;;
11711;SDS011;5912;51.034;6.984;2022-07-18T06:27:24;2.15;;;1.08;;
11711;SDS011;5912;51.034;6.984;2022-07-18T06:29:50;1.17;;;1.00;;
11711;SDS011;5912;51.034;6.984;2022-07-18T06:32:15;1.63;;;0.93;;
11711;SDS011;5912;51.034;6.984;2022-07-18T06:34:40;1.80;;;0.88;;
11711;SDS011;5912;51.034;6.984;2022-07-18T06:37:06;1.13;;;0.88;;
11711;SDS011;5912;51.034;6.984;2022-07-18T06:39:31;2.20;;;0.80;;
11711;SDS011;5912;51.034;6.984;2022-07-18T06:41:56;2.25;;;0.90;;
11711;SDS011;5912;51.034;6.984;2022-07-18T06:44:22;1.52;;;0.80;;
11711;SDS011;5912;51.034;6.984;2022-07-18T06:46:47;1.42;;;0.90;;
11711;SDS011;5912;51.034;6.984;2022-07-18T06:49:12;1.15;;;0.80;;
11711;SDS011;5912;51.034;6.984;2022-07-18T06:51:38;0.88;;;0.70;;
11711;SDS011;5912;51.034;6.984;2022-07-18T06:54:03;0.82;;;0.80;;
11711;SDS011;5912;51.034;6.984;2022-07-18T06:56:29;1.70;;;1.33;;
11711;SDS011;5912;51.034;6.984;2022-07-18T06:58:54;3.03;;;1.00;;
11711;SDS011;5912;51.034;6.984;2022-07-18T07:01:20;2.25;;;0.70;;
11711;SDS011;5912;51.034;6.984;2022-07-18T07:03:48;2.90;;;0.88;;
11711;SDS011;5912;51.034;6.984;2022-07-18T07:06:14;4.40;;;1.02;;
11711;SDS011;5912;51.034;6.984;2022-07-18T07:08:40;1.40;;;0.80;;
11711;SDS011;5912;51.034;6.984;2022-07-18T07:11:06;1.17;;;0.77;;
11711;SDS011;5912;51.034;6.984;2022-07-18T07:13:32;1.67;;;0.98;;
11711;SDS011;5912;51.034;6.984;2022-07-18T07:15:58;1.05;;;0.90;;
11711;SDS011;5912;51.034;6.984;2022-07-18T07:18:23;2.15;;;0.90;;
11711;SDS011;5912;51.034;6.984;2022-07-18T07:21:01;3.13;;;0.90;;
11711;SDS011;5912;51.034;6.984;2022-07-18T07:23:27;4.35;;;0.90;;
11711;SDS011;5912;51.034;6.984;2022-07-18T07:25:52;1.20;;;0.60;;
11711;SDS011;5912;51.034;6.984;2022-07-18T07:28:17;1.77;;;0.77;;
11711;SDS011;5912;51.034;6.984;2022-07-18T07:30:43;1.08;;;0.75;;
11711;SDS011;5912;51.034;6.984;2022-07-18T07:33:08;1.85;;;0.70;;
11711;SDS011;5912;51.034;6.984;2022-07-18T07:35:34;1.33;;;0.70;;
11711;SDS011;5912;51.034;6.984;2022-07-18T07:37:59;1.50;;;0.90;;
11711;SDS011;5912;51.034;6.984;2022-07-18T07:40:26;1.80;;;1.10;;
11711;SDS011;5912;51.034;6.984;2022-07-18T07:42:52;0.82;;;0.68;;
11711;SDS011;5912;51.034;6.984;2022-07-18T07:45:36;2.70;;;0.80;;
11711;SDS011;5912;51.034;6.984;2022-07-18T07:48:01;2.15;;;1.20;;
11711;SDS011;5912;51.034;6.984;2022-07-18T07:50:27;1.52;;;0.77;;
11711;SDS011;5912;51.034;6.984;2022-07-18T07:52:53;1.85;;;0.90;;
11711;SDS011;5912;51.034;6.984;2022-07-18T07:55:18;1.60;;;0.88;;
11711;SDS011;5912;51.034;6.984;2022-07-18T07:57:44;2.45;;;0.80;;
11711;SDS011;5912;51.034;6.984;2022-07-18T08:00:09;2.13;;;0.80;;
11711;SDS011;5912;51.034;6.984;2022-07-18T08:02:35;3.10;;;1.02;;
11711;SDS011;5912;51.034;6.984;2022-07-18T08:05:01;2.08;;;0.60;;
11711;SDS011;5912;51.034;6.984;2022-07-18T08:07:27;1.00;;;0.50;;
11711;SDS011;5912;51.034;6.984;2022-07-18T08:09:53;2.30;;;0.70;;
11711;SDS011;5912;51.034;6.984;2022-07-18T08:12:18;1.33;;;0.80;;
11711;SDS011;5912;51.034;6.984;2022-07-18T08:18:14;0.63;;;0.55;;
11711;SDS011;5912;51.034;6.984;2022-07-18T08:20:39;2.17;;;0.73;;
11711;SDS011;5912;51.034;6.984;2022-07-18T08:23:05;1.60;;;0.80;;
11711;SDS011;5912;51.034;6.984;2022-07-18T08:25:37;1.60;;;0.88;;
11711;SDS011;5912;51.034;6.984;2022-07-18T08:28:03;1.02;;;0.60;;
11711;SDS011;5912;51.034;6.984;2022-07-18T08:30:30;1.10;;;0.70;;
11711;SDS011;5912;51.034;6.984;2022-07-18T08:32:55;0.98;;;0.75;;
11711;SDS011;5912;51.034;6.984;2022-07-18T08:35:21;1.27;;;0.70;;
11711;SDS011;5912;51.034;6.984;2022-07-18T08:37:47;1.63;;;0.90;;
11711;SDS011;5912;51.034;6.984;2022-07-18T08:40:12;3.45;;;0.82;;
11711;SDS011;5912;51.034;6.984;2022-07-18T08:42:39;2.67;;;0.90;;
11711;SDS011;5912;51.034;6.984;2022-07-18T08:45:05;2.33;;;1.25;;
11711;SDS011;5912;51.034;6.984;2022-07-18T08:47:31;1.05;;;0.70;;
11711;SDS011;5912;51.034;6.984;2022-07-18T08:49:57;2.53;;;0.77;;
11711;SDS011;5912;51.034;6.984;2022-07-18T08:52:24;2.15;;;0.93;;
11711;SDS011;5912;51.034;6.984;2022-07-18T08:54:51;2.00;;;0.90;;
11711;SDS011;5912;51.034;6.984;2022-07-18T08:57:16;1.42;;;0.70;;
11711;SDS011;5912;51.034;6.984;2022-07-18T08:59:42;1.30;;;0.73;;
11711;SDS011;5912;51.034;6.984;2022-07-18T09:02:08;1.60;;;0.70;;
11711;SDS011;5912;51.034;6.984;2022-07-18T09:04:43;1.02;;;0.80;;
11711;SDS011;5912;51.034;6.984;2022-07-18T09:07:10;0.65;;;0.52;;
11711;SDS011;5912;51.034;6.984;2022-07-18T09:09:52;2.40;;;0.80;;
11711;SDS011;5912;51.034;6.984;2022-07-18T09:12:19;1.48;;;0.63;;
11711;SDS011;5912;51.034;6.984;2022-07-18T09:14:46;0.82;;;0.57;;
11711;SDS011;5912;51.034;6.984;2022-07-18T09:20:07;2.50;;;0.82;;
11711;SDS011;5912;51.034;6.984;2022-07-18T09:22:37;1.60;;;0.55;;
11711;SDS011;5912;51.034;6.984;2022-07-18T09:25:24;2.72;;;0.80;;
11711;SDS011;5912;51.034;6.984;2022-07-18T09:27:53;0.95;;;0.55;;
11711;SDS011;5912;51.034;6.984;2022-07-18T09:33:05;1.65;;;0.90;;
11711;SDS011;5912;51.034;6.984;2022-07-18T09:35:34;2.20;;;1.05;;
11711;SDS011;5912;51.034;6.984;2022-07-18T09:38:08;1.95;;;0.80;;
11711;SDS011;5912;51.034;6.984;2022-07-18T09:40:36;5.45;;;0.93;;
11711;SDS011;5912;51.034;6.984;2022-07-18T09:43:08;3.30;;;0.98;;
11711;SDS011;5912;51.034;6.984;2022-07-18T09:45:37;1.00;;;0.60;;
11711;SDS011;5912;51.034;6.984;2022-07-18T09:48:08;2.03;;;0.80;;
11711;SDS011;5912;51.034;6.984;2022-07-18T09:50:40;1.60;;;0.73;;
11711;SDS011;5912;51.034;6.984;2022-07-18T09:53:27;1.77;;;0.65;;
11711;SDS011;5912;51.034;6.984;2022-07-18T09:55:57;2.55;;;1.05;;
11711;SDS011;5912;51.034;6.984;2022-07-18T09:58:50;0.70;;;0.60;;
11711;SDS011;5912;51.034;6.984;2022-07-18T10:01:16;1.13;;;0.65;;
11711;SDS011;5912;51.034;6.984;2022-07-18T10:03:42;0.95;;;0.60;;
11711;SDS011;5912;51.034;6.984;2022-07-18T10:06:08;1.17;;;0.70;;
11711;SDS011;5912;51.034;6.984;2022-07-18T10:08:34;1.33;;;0.90;;
11711;SDS011;5912;51.034;6.984;2022-07-18T10:11:01;0.70;;;0.70;;
11711;SDS011;5912;51.034;6.984;2022-07-18T10:13:29;2.17;;;0.68;;
11711;SDS011;5912;51.034;6.984;2022-07-18T10:15:56;1.10;;;0.80;;
11711;SDS011;5912;51.034;6.984;2022-07-18T10:18:23;2.70;;;0.70;;
11711;SDS011;5912;51.034;6.984;2022-07-18T10:20:56;1.75;;;0.75;;
11711;SDS011;5912;51.034;6.984;2022-07-18T10:23:27;2.78;;;0.63;;
11711;SDS011;5912;51.034;6.984;2022-07-18T10:26:10;1.65;;;0.75;;
11711;SDS011;5912;51.034;6.984;2022-07-18T10:28:58;1.40;;;0.60;;
11711;SDS011;5912;51.034;6.984;2022-07-18T10:31:26;1.95;;;0.77;;
11711;SDS011;5912;51.034;6.984;2022-07-18T10:33:54;1.23;;;0.85;;
11711;SDS011;5912;51.034;6.984;2022-07-18T10:36:38;1.73;;;0.80;;
11711;SDS011;5912;51.034;6.984;2022-07-18T10:39:17;3.67;;;0.80;;
11711;SDS011;5912;51.034;6.984;2022-07-18T10:57:33;0.80;;;0.50;;
11711;SDS011;5912;51.034;6.984;2022-07-18T11:00:04;1.17;;;0.63;;
11711;SDS011;5912;51.034;6.984;2022-07-18T11:13:22;1.02;;;0.70;;
11711;SDS011;5912;51.034;6.984;2022-07-18T11:23:48;2.15;;;0.85;;
11711;SDS011;5912;51.034;6.984;2022-07-18T11:26:15;1.77;;;0.80;;
11711;SDS011;5912;51.034;6.984;2022-07-18T11:28:41;1.65;;;0.80;;
11711;SDS011;5912;51.034;6.984;2022-07-18T11:31:08;2.35;;;0.60;;
11711;SDS011;5912;51.034;6.984;2022-07-18T11:33:36;1.85;;;0.63;;
11711;SDS011;5912;51.034;6.984;2022-07-18T11:36:04;1.33;;;0.98;;
11711;SDS011;5912;51.034;6.984;2022-07-18T11:38:29;1.75;;;0.50;;
11711;SDS011;5912;51.034;6.984;2022-07-18T11:40:55;1.95;;;0.75;;
11711;SDS011;5912;51.034;6.984;2022-07-18T11:43:24;2.03;;;0.82;;
11711;SDS011;5912;51.034;6.984;2022-07-18T11:46:04;2.90;;;0.93;;
11711;SDS011;5912;51.034;6.984;2022-07-18T11:48:34;1.05;;;0.75;;
11711;SDS011;5912;51.034;6.984;2022-07-18T11:51:00;1.50;;;0.82;;
11711;SDS011;5912;51.034;6.984;2022-07-18T11:53:25;1.30;;;0.80;;
11711;SDS011;5912;51.034;6.984;2022-07-18T11:55:52;1.55;;;0.80;;
11711;SDS011;5912;51.034;6.984;2022-07-18T11:58:18;2.03;;;0.63;;
11711;SDS011;5912;51.034;6.984;2022-07-18T12:00:44;1.38;;;0.60;;
11711;SDS011;5912;51.034;6.984;2022-07-18T12:03:11;1.20;;;0.80;;
11711;SDS011;5912;51.034;6.984;2022-07-18T12:05:45;1.00;;;0.60;;
11711;SDS011;5912;51.034;6.984;2022-07-18T12:11:03;0.98;;;0.88;;
11711;SDS011;5912;51.034;6.984;2022-07-18T12:13:41;1.10;;;0.63;;
11711;SDS011;5912;51.034;6.984;2022-07-18T12:18:48;2.40;;;0.90;;
11711;SDS011;5912;51.034;6.984;2022-07-18T12:21:14;2.00;;;0.80;;
11711;SDS011;5912;51.034;6.984;2022-07-18T12:23:40;1.10;;;0.70;;
11711;SDS011;5912;51.034;6.984;2022-07-18T12:26:05;1.08;;;0.80;;
11711;SDS011;5912;51.034;6.984;2022-07-18T12:28:31;0.88;;;0.50;;
11711;SDS011;5912;51.034;6.984;2022-07-18T12:30:56;1.17;;;0.70;;
11711;SDS011;5912;51.034;6.984;2022-07-18T12:33:21;1.25;;;0.55;;
11711;SDS011;5912;51.034;6.984;2022-07-18T12:35:53;1.17;;;0.63;;
11711;SDS011;5912;51.034;6.984;2022-07-18T12:38:23;0.60;;;0.55;;
11711;SDS011;5912;51.034;6.984;2022-07-18T12:40:52;1.58;;;0.95;;
11711;SDS011;5912;51.034;6.984;2022-07-18T12:45:57;1.88;;;0.90;;
11711;SDS011;5912;51.034;6.984;2022-07-18T12:48:24;1.60;;;0.50;;
11711;SDS011;5912;51.034;6.984;2022-07-18T12:51:08;1.10;;;0.65;;
11711;SDS011;5912;51.034;6.984;2022-07-18T12:53:36;1.73;;;0.70;;
11711;SDS011;5912;51.034;6.984;2022-07-18T12:56:03;1.50;;;0.65;;
11711;SDS011;5912;51.034;6.984;2022-07-18T12:58:29;2.67;;;0.77;;
11711;SDS011;5912;51.034;6.984;2022-07-18T13:00:54;1.70;;;0.60;;
11711;SDS011;5912;51.034;6.984;2022-07-18T13:03:21;2.08;;;0.68;;
11711;SDS011;5912;51.034;6.984;2022-07-18T13:05:46;2.15;;;1.08;;
11711;SDS011;5912;51.034;6.984;2022-07-18T13:08:12;1.35;;;0.70;;
11711;SDS011;5912;51.034;6.984;2022-07-18T13:10:38;1.52;;;0.70;;
11711;SDS011;5912;51.034;6.984;2022-07-18T13:13:04;1.10;;;0.60;;
11711;SDS011;5912;51.034;6.984;2022-07-18T13:15:31;1.45;;;0.80;;
11711;SDS011;5912;51.034;6.984;2022-07-18T13:17:56;1.85;;;0.65;;
11711;SDS011;5912;51.034;6.984;2022-07-18T13:20:22;1.23;;;0.40;;
11711;SDS011;5912;51.034;6.984;2022-07-18T13:22:48;0.60;;;0.60;;
11711;SDS011;5912;51.034;6.984;2022-07-18T13:25:13;1.35;;;0.60;;
11711;SDS011;5912;51.034;6.984;2022-07-18T13:27:38;1.83;;;0.70;;
11711;SDS011;5912;51.034;6.984;2022-07-18T13:30:05;2.45;;;0.70;;
11711;SDS011;5912;51.034;6.984;2022-07-18T13:32:33;1.10;;;0.50;;
11711;SDS011;5912;51.034;6.984;2022-07-18T13:34:59;1.75;;;0.50;;
11711;SDS011;5912;51.034;6.984;2022-07-18T13:37:25;1.17;;;0.50;;
11711;SDS011;5912;51.034;6.984;2022-07-18T13:39:50;1.00;;;0.68;;
11711;SDS011;5912;51.034;6.984;2022-07-18T13:42:16;1.40;;;0.77;;
11711;SDS011;5912;51.034;6.984;2022-07-18T13:44:41;2.72;;;0.63;;
11711;SDS011;5912;51.034;6.984;2022-07-18T13:47:09;1.25;;;0.65;;
11711;SDS011;5912;51.034;6.984;2022-07-18T13:49:35;2.03;;;0.77;;
11711;SDS011;5912;51.034;6.984;2022-07-18T13:52:01;0.97;;;0.60;;
11711;SDS011;5912;51.034;6.984;2022-07-18T13:54:26;1.10;;;0.60;;
11711;SDS011;5912;51.034;6.984;2022-07-18T13:56:51;2.40;;;0.70;;
11711;SDS011;5912;51.034;6.984;2022-07-18T13:59:16;1.47;;;0.80;;
11711;SDS011;5912;51.034;6.984;2022-07-18T14:01:42;1.48;;;0.68;;
11711;SDS011;5912;51.034;6.984;2022-07-18T14:04:07;3.00;;;0.52;;
11711;SDS011;5912;51.034;6.984;2022-07-18T14:06:33;1.23;;;0.73;;
11711;SDS011;5912;51.034;6.984;2022-07-18T14:09:00;2.03;;;0.70;;
11711;SDS011;5912;51.034;6.984;2022-07-18T14:11:26;1.60;;;0.88;;
11711;SDS011;5912;51.034;6.984;2022-07-18T14:13:52;0.97;;;0.70;;
11711;SDS011;5912;51.034;6.984;2022-07-18T14:16:17;1.48;;;0.80;;
11711;SDS011;5912;51.034;6.984;2022-07-18T14:18:42;1.08;;;0.60;;
11711;SDS011;5912;51.034;6.984;2022-07-18T14:21:08;1.25;;;0.60;;
11711;SDS011;5912;51.034;6.984;2022-07-18T14:23:33;0.70;;;0.50;;
11711;SDS011;5912;51.034;6.984;2022-07-18T14:25:58;1.42;;;0.70;;
11711;SDS011;5912;51.034;6.984;2022-07-18T14:28:24;0.95;;;0.65;;
11711;SDS011;5912;51.034;6.984;2022-07-18T14:30:50;1.27;;;0.68;;
11711;SDS011;5912;51.034;6.984;2022-07-18T14:33:16;1.35;;;0.50;;
11711;SDS011;5912;51.034;6.984;2022-07-18T14:35:41;1.58;;;0.77;;
11711;SDS011;5912;51.034;6.984;2022-07-18T14:38:06;1.00;;;0.60;;
11711;SDS011;5912;51.034;6.984;2022-07-18T14:40:32;1.02;;;0.65;;
11711;SDS011;5912;51.034;6.984;2022-07-18T14:42:57;2.25;;;0.80;;
11711;SDS011;5912;51.034;6.984;2022-07-18T14:45:23;2.85;;;0.77;;
11711;SDS011;5912;51.034;6.984;2022-07-18T14:47:48;3.08;;;0.85;;
11711;SDS011;5912;51.034;6.984;2022-07-18T14:50:13;1.42;;;0.70;;
11711;SDS011;5912;51.034;6.984;2022-07-18T14:55:32;0.93;;;0.63;;
11711;SDS011;5912;51.034;6.984;2022-07-18T14:57:57;2.07;;;0.60;;
11711;SDS011;5912;51.034;6.984;2022-07-18T15:00:23;0.80;;;0.60;;
11711;SDS011;5912;51.034;6.984;2022-07-18T15:02:48;1.35;;;0.90;;
11711;SDS011;5912;51.034;6.984;2022-07-18T15:05:13;1.10;;;0.80;;
11711;SDS011;5912;51.034;6.984;2022-07-18T15:07:39;1.90;;;0.80;;
11711;SDS011;5912;51.034;6.984;2022-07-18T15:10:05;3.25;;;0.85;;
11711;SDS011;5912;51.034;6.984;2022-07-18T15:12:31;1.50;;;0.80;;
11711;SDS011;5912;51.034;6.984;2022-07-18T15:14:57;0.73;;;0.57;;
11711;SDS011;5912;51.034;6.984;2022-07-18T15:17:23;1.80;;;0.73;;
11711;SDS011;5912;51.034;6.984;2022-07-18T15:23:10;1.67;;;0.70;;
11711;SDS011;5912;51.034;6.984;2022-07-18T15:25:35;2.58;;;0.60;;
11711;SDS011;5912;51.034;6.984;2022-07-18T15:28:01;2.30;;;0.73;;
11711;SDS011;5912;51.034;6.984;2022-07-18T15:30:26;1.30;;;0.73;;
11711;SDS011;5912;51.034;6.984;2022-07-18T15:32:51;2.83;;;0.80;;
11711;SDS011;5912;51.034;6.984;2022-07-18T15:35:17;1.85;;;0.80;;
11711;SDS011;5912;51.034;6.984;2022-07-18T15:37:42;1.00;;;0.52;;
11711;SDS011;5912;51.034;6.984;2022-07-18T15:40:08;1.98;;;0.80;;
11711;SDS011;5912;51.034;6.984;2022-07-18T15:42:33;3.28;;;0.88;;
11711;SDS011;5912;51.034;6.984;2022-07-18T15:44:59;1.42;;;0.77;;
11711;SDS011;5912;51.034;6.984;2022-07-18T15:47:24;1.27;;;0.98;;
11711;SDS011;5912;51.034;6.984;2022-07-18T15:49:49;1.20;;;0.80;;
11711;SDS011;5912;51.034;6.984;2022-07-18T15:52:15;1.88;;;0.88;;
11711;SDS011;5912;51.034;6.984;2022-07-18T15:54:40;2.42;;;0.77;;
11711;SDS011;5912;51.034;6.984;2022-07-18T15:57:05;3.10;;;0.80;;